Patrick Air Force Base
KCOF : now visible

Airfield :











YOU CAN JOIN US ON...

 
LOGIN :

Register | Disclaimer

   EN    FR    IT 

 









Legend :    VFR   Marginal VFR   IFR   Intensive IFR   Very Intensive IFR
Visi :
Ceiling :
>= 8 km
>= 3000ft
5 to 8 km
1000 to 3000 ft
1500m to 5 km
500 to 1000 ft
800 to 1500m
200 to 500 ft
< 800m
< 200 ft
Symbols :   Thunderstorms  Fog  Heavy snow  Heavy precipitations  Wind > 20 kt






- Airport Elevation : 8 ft


KCOF - Patrick Air Force Base

CURRENT METAR :
  • 200156Z AUTO 10006KT 10SM FEW012 SCT055 BKN140 22/18 A2994 RMK AO2 SLP143 T02220182 $

EXPIRED METARs :
  • 200056Z AUTO 08004KT 10SM OVC055 22/18 A2992 RMK AO2 SLP136 T02220182 $
  • 192356Z AUTO 00000KT 10SM FEW100 SCT200 22/18 A2991 RMK AO2 SLP133 60052 T02210181 10254 20217 53010 $

TAF AMD TAF KCOF
Valid from the 20 at 02:00 until the 21 at 08:00 UTC


200230Z 2002/2108 08009KT 9999 BKN050 QNH2991INS
BECMG 2014/2015 08009KT 9000 -SHRA BKN015 QNH2992INS
TEMPO 2015/2017 09010G15KT 6000 TSRA BKN008CB
BECMG 2018/2019 09010KT 9999 NSW BKN015 OVC040 QNH2992INS
BECMG 2021/2022 20010KT 9000 -SHRA OVC020 QNH2987INS TX26/2018Z TN20/2009Z LAST NO AMDS AFT 2004 NEXT 2010
KZMA FIR / North America



MET'MAP, your aeronautical weather chart ! - Copyright ORBIFLY December 2007 - Disclaimer

ORBIFLY MET'MAP TEAM :

Programming & Development : Alexandra Zaïnal
Concept & original design : Baudouin d'Aumeries
Assistance for programming : Marc-Olivier Méhu
Technical & hardware support : Manuel Goepfert

Contact : metmap@orbifly.com




SOURCES & CREDITS :

   NOAA       Earth
Advisory